Time;durP1;ratioP1;P1;durP2;ratioP2;P2;SDS_P1;SDS_P2;PMS_P1;PMS_P2;Temp;Humidity;BMP_temperature;BMP_pressure;BME280_temperature;BME280_humidity;BME280_pressure;Samples;Min_cycle;Max_cycle;Signal;HPM_P1;HPM_P2
2024/01/13 00:02:31;;;;;;;13.18;5.38;;;0.80;99.90;;;;;;10056737;28;20454;-65
2024/01/13 00:07:21;;;;;;;15.50;5.18;;;0.80;99.90;;;;;;10056170;28;20033;-67
2024/01/13 00:12:12;;;;;;;12.38;5.05;;;0.90;99.90;;;;;;10053826;28;20087;-64
2024/01/13 00:17:03;;;;;;;15.52;6.85;;;0.90;99.90;;;;;;10054874;28;20515;-66
2024/01/13 00:21:54;;;;;;;16.17;6.20;;;0.90;99.90;;;;;;10055358;28;20061;-65
2024/01/13 00:26:44;;;;;;;14.27;5.32;;;0.80;99.90;;;;;;10055695;28;20022;-66
2024/01/13 00:31:35;;;;;;;14.75;6.40;;;0.90;99.90;;;;;;10055163;28;20096;-68
2024/01/13 00:36:26;;;;;;;10.98;5.35;;;0.90;99.90;;;;;;10055659;28;20052;-66
2024/01/13 00:41:16;;;;;;;16.58;6.47;;;1.00;99.90;;;;;;10054576;28;20113;-68
2024/01/13 00:46:07;;;;;;;14.73;5.43;;;0.90;99.90;;;;;;10058131;28;20079;-70
2024/01/13 00:50:59;;;;;;;17.23;6.13;;;1.00;99.90;;;;;;10057939;28;20426;-66
2024/01/13 00:55:50;;;;;;;15.80;6.28;;;0.90;99.90;;;;;;10060676;28;20140;-67
2024/01/13 01:00:40;;;;;;;12.00;5.53;;;0.90;99.90;;;;;;10063567;28;20531;-71
2024/01/13 01:05:31;;;;;;;15.18;5.82;;;1.00;99.90;;;;;;10052676;28;20029;-72
2024/01/13 01:10:22;;;;;;;17.40;5.97;;;0.90;99.90;;;;;;10042529;28;20606;-73
2024/01/13 01:15:12;;;;;;;14.85;5.10;;;0.80;99.90;;;;;;10047895;28;20040;-68
2024/01/13 01:20:03;;;;;;;15.52;5.50;;;0.80;99.90;;;;;;10058218;28;20585;-66
2024/01/13 01:24:54;;;;;;;15.10;5.10;;;0.70;99.90;;;;;;10060166;28;20053;-69
2024/01/13 01:29:45;;;;;;;16.13;7.15;;;0.80;99.90;;;;;;10061018;28;20037;-66
2024/01/13 01:34:36;;;;;;;17.70;7.50;;;0.90;99.90;;;;;;10049433;28;20491;-69
2024/01/13 01:39:26;;;;;;;13.73;5.90;;;1.00;99.90;;;;;;10060342;28;20558;-72
2024/01/13 01:44:18;;;;;;;11.95;4.88;;;0.90;99.90;;;;;;10061710;28;20033;-67
2024/01/13 01:49:12;;;;;;;11.07;5.18;;;0.90;99.90;;;;;;10061479;28;20083;-64
2024/01/13 01:54:03;;;;;;;14.65;5.60;;;0.80;99.90;;;;;;10064853;28;20034;-71
2024/01/13 01:58:54;;;;;;;14.90;5.15;;;0.80;99.90;;;;;;10060357;28;20053;-64
2024/01/13 02:03:47;;;;;;;14.25;6.53;;;0.80;99.90;;;;;;10060450;28;20112;-71
2024/01/13 02:08:38;;;;;;;9.82;5.00;;;0.70;99.90;;;;;;10059988;28;20508;-67
2024/01/13 02:13:29;;;;;;;15.43;6.13;;;0.90;99.90;;;;;;10058091;28;20025;-66
2024/01/13 02:18:19;;;;;;;12.70;5.93;;;0.90;99.90;;;;;;10058887;28;20102;-65
2024/01/13 02:23:10;;;;;;;8.07;4.38;;;0.80;99.90;;;;;;10059392;28;20073;-64
2024/01/13 02:28:00;;;;;;;15.93;5.53;;;0.80;99.90;;;;;;10059052;28;20033;-63
2024/01/13 02:32:51;;;;;;;12.23;5.32;;;0.80;99.90;;;;;;10057352;28;20503;-64
2024/01/13 02:37:42;;;;;;;11.80;5.07;;;0.90;99.90;;;;;;10059153;28;20037;-64
2024/01/13 02:42:32;;;;;;;13.18;5.00;;;0.90;99.90;;;;;;10058029;28;20021;-64
2024/01/13 02:47:39;;;;;;;15.43;6.40;;;0.90;99.90;;;;;;10058056;28;20526;-64
2024/01/13 02:52:30;;;;;;;13.93;5.15;;;0.90;99.90;;;;;;10057626;28;20022;-70
2024/01/13 02:57:20;;;;;;;15.85;5.82;;;0.90;99.90;;;;;;10059579;28;20115;-65
2024/01/13 03:02:11;;;;;;;15.18;5.80;;;0.90;99.90;;;;;;10057479;28;20495;-66
2024/01/13 03:07:02;;;;;;;14.88;6.53;;;0.90;99.90;;;;;;10057814;28;20510;-63
2024/01/13 03:11:52;;;;;;;14.77;5.97;;;1.00;99.90;;;;;;10057577;28;20496;-66
2024/01/13 03:16:43;;;;;;;15.85;6.35;;;0.90;99.90;;;;;;10057288;28;20041;-67
2024/01/13 03:21:33;;;;;;;11.15;5.25;;;0.80;99.90;;;;;;10056486;28;20121;-64
2024/01/13 03:26:24;;;;;;;14.65;6.00;;;0.80;99.90;;;;;;10057019;28;20104;-65
2024/01/13 03:31:15;;;;;;;16.60;5.90;;;0.80;99.90;;;;;;10056698;28;20431;-65
2024/01/13 03:36:08;;;;;;;12.30;5.45;;;0.80;99.90;;;;;;10057257;28;20044;-66
2024/01/13 03:40:58;;;;;;;14.45;5.70;;;0.90;99.90;;;;;;10056771;28;20059;-67
2024/01/13 03:45:49;;;;;;;12.48;6.38;;;0.90;99.90;;;;;;10056361;28;20542;-64
2024/01/13 03:50:40;;;;;;;14.38;5.97;;;0.90;99.90;;;;;;10056235;28;20034;-66
2024/01/13 03:55:30;;;;;;;16.35;6.55;;;0.90;99.90;;;;;;10069234;28;20029;-69
2024/01/13 04:00:21;;;;;;;14.45;5.72;;;0.80;99.90;;;;;;10055883;28;20047;-73
2024/01/13 04:05:12;;;;;;;18.20;6.18;;;0.70;99.90;;;;;;10054731;28;20021;-64
2024/01/13 04:10:02;;;;;;;14.13;5.35;;;0.80;99.90;;;;;;10052842;28;20431;-64
2024/01/13 04:14:53;;;;;;;19.55;7.38;;;0.90;99.90;;;;;;10054991;28;20033;-73
2024/01/13 04:19:44;;;;;;;17.05;6.18;;;0.90;99.90;;;;;;10055275;28;20057;-66
2024/01/13 04:24:34;;;;;;;12.27;5.75;;;0.90;99.90;;;;;;10056352;28;20018;-68
2024/01/13 04:29:25;;;;;;;16.00;5.70;;;0.90;99.90;;;;;;10051653;28;20397;-67
2024/01/13 04:34:16;;;;;;;13.07;6.07;;;0.90;99.90;;;;;;10058611;28;20036;-65
2024/01/13 04:39:06;;;;;;;16.70;6.65;;;1.00;99.90;;;;;;10071700;28;20410;-68
2024/01/13 04:43:57;;;;;;;14.00;5.80;;;0.90;99.90;;;;;;10062911;28;20029;-67
2024/01/13 04:48:47;;;;;;;15.35;6.70;;;0.90;99.90;;;;;;10062657;28;20095;-72
2024/01/13 04:53:38;;;;;;;13.90;5.75;;;0.90;99.90;;;;;;10064204;28;20044;-65
2024/01/13 04:58:29;;;;;;;13.57;6.10;;;0.80;99.90;;;;;;10062959;28;20034;-66
2024/01/13 05:03:19;;;;;;;16.90;6.60;;;0.90;99.90;;;;;;10062232;28;20021;-72
2024/01/13 05:08:10;;;;;;;20.65;7.38;;;0.90;99.90;;;;;;10062083;28;20344;-72
2024/01/13 05:13:01;;;;;;;18.10;6.00;;;1.00;99.90;;;;;;10062810;28;20033;-69
2024/01/13 05:17:51;;;;;;;14.80;5.93;;;0.90;99.90;;;;;;10061799;28;20045;-63
2024/01/13 05:22:42;;;;;;;16.13;7.15;;;0.90;99.90;;;;;;10060857;28;20037;-63
2024/01/13 05:27:33;;;;;;;19.30;6.63;;;0.90;99.90;;;;;;10061569;28;20033;-67
2024/01/13 05:32:23;;;;;;;20.70;6.95;;;0.90;99.90;;;;;;10061384;28;20017;-64
2024/01/13 05:37:14;;;;;;;16.83;7.15;;;0.90;99.90;;;;;;10061022;28;20045;-66
2024/01/13 05:42:07;;;;;;;14.73;6.72;;;0.80;99.90;;;;;;10060637;28;20037;-68
2024/01/13 05:46:57;;;;;;;13.75;6.35;;;0.90;99.90;;;;;;10054411;28;20053;-65
2024/01/13 05:51:48;;;;;;;18.08;6.72;;;0.90;99.90;;;;;;10069368;28;20075;-62
2024/01/13 05:56:38;;;;;;;15.88;5.72;;;0.80;99.90;;;;;;10061423;28;20039;-66
2024/01/13 06:01:30;;;;;;;18.02;6.63;;;0.80;99.90;;;;;;10059487;28;20113;-65
2024/01/13 06:06:20;;;;;;;19.45;7.63;;;0.90;99.90;;;;;;10058828;28;20025;-63
2024/01/13 06:11:11;;;;;;;15.55;6.28;;;0.80;99.90;;;;;;10057470;28;20473;-64
2024/01/13 06:16:02;;;;;;;18.77;7.95;;;0.90;99.90;;;;;;10059281;28;20509;-64
2024/01/13 06:20:53;;;;;;;18.40;8.13;;;0.80;99.90;;;;;;10058767;28;20091;-63
2024/01/13 06:25:43;;;;;;;14.65;6.82;;;0.80;99.90;;;;;;10059541;28;20108;-64
2024/01/13 06:30:34;;;;;;;19.17;8.77;;;0.90;99.90;;;;;;10058918;28;20025;-64
2024/01/13 06:35:25;;;;;;;20.00;7.55;;;0.80;99.90;;;;;;10058809;28;20033;-70
2024/01/13 06:40:15;;;;;;;15.93;6.07;;;0.80;99.90;;;;;;10058673;28;20042;-74
2024/01/13 06:45:06;;;;;;;20.23;8.27;;;0.80;99.90;;;;;;10057053;28;20430;-67
2024/01/13 06:49:57;;;;;;;18.90;6.85;;;0.80;99.90;;;;;;10054789;28;20124;-65
2024/01/13 06:54:48;;;;;;;21.20;7.57;;;0.80;99.90;;;;;;10063704;28;20577;-63
2024/01/13 06:59:39;;;;;;;17.02;7.60;;;0.80;99.90;;;;;;10056470;28;20396;-63
2024/01/13 07:04:30;;;;;;;21.17;8.20;;;0.90;99.90;;;;;;10057476;28;20033;-62
2024/01/13 07:09:21;;;;;;;17.50;7.05;;;0.80;99.90;;;;;;10057818;28;20037;-67
2024/01/13 07:14:12;;;;;;;22.13;8.25;;;0.70;99.90;;;;;;10057492;28;20026;-62
2024/01/13 07:19:02;;;;;;;19.52;7.53;;;0.70;99.90;;;;;;10056986;28;20519;-62
2024/01/13 07:23:53;;;;;;;18.77;6.95;;;0.70;99.90;;;;;;10056111;28;20106;-65
2024/01/13 07:28:44;;;;;;;18.25;7.90;;;0.70;99.90;;;;;;10056305;28;20458;-64
2024/01/13 07:33:34;;;;;;;26.23;8.13;;;0.70;99.90;;;;;;10056417;28;20049;-66
2024/01/13 07:38:25;;;;;;;22.02;7.60;;;0.70;99.90;;;;;;10055937;28;20052;-62
2024/01/13 07:43:15;;;;;;;20.25;7.70;;;0.70;99.90;;;;;;10051741;28;20113;-66
2024/01/13 07:48:06;;;;;;;16.02;7.13;;;0.70;99.90;;;;;;10074622;28;20403;-66
2024/01/13 07:52:57;;;;;;;21.90;7.57;;;0.70;99.90;;;;;;10073149;28;20022;-66
2024/01/13 07:57:48;;;;;;;14.90;7.03;;;0.60;99.90;;;;;;10073540;28;20507;-67
2024/01/13 08:02:38;;;;;;;15.77;6.93;;;0.60;99.90;;;;;;10072208;28;20025;-70
2024/01/13 08:07:29;;;;;;;16.45;7.03;;;0.60;99.90;;;;;;10074150;28;20030;-66
2024/01/13 08:12:20;;;;;;;16.05;7.15;;;0.70;99.90;;;;;;10079913;28;20375;-65
2024/01/13 08:17:10;;;;;;;13.95;7.25;;;0.60;99.90;;;;;;10084468;28;20120;-63
2024/01/13 08:22:01;;;;;;;15.50;6.65;;;0.60;99.90;;;;;;10077562;28;20267;-64
2024/01/13 08:26:52;;;;;;;20.63;7.25;;;0.60;99.90;;;;;;10078394;28;20033;-62
2024/01/13 08:31:44;;;;;;;12.70;5.30;;;0.60;99.90;;;;;;10083289;28;20038;-72
2024/01/13 08:36:35;;;;;;;13.10;6.05;;;0.60;99.90;;;;;;10080921;28;20032;-68
2024/01/13 08:41:26;;;;;;;16.55;6.85;;;0.60;99.90;;;;;;10078846;28;20030;-63
2024/01/13 08:46:16;;;;;;;18.92;5.97;;;0.60;99.90;;;;;;10075279;28;20044;-63
2024/01/13 08:51:08;;;;;;;22.15;7.10;;;0.60;99.90;;;;;;10075840;28;20691;-73
2024/01/13 08:55:58;;;;;;;13.13;6.43;;;0.60;99.90;;;;;;10075424;28;20052;-64
2024/01/13 09:00:49;;;;;;;11.60;4.72;;;0.60;99.90;;;;;;10082072;28;20090;-64
2024/01/13 09:05:40;;;;;;;12.65;5.15;;;0.70;99.90;;;;;;10085233;28;20025;-80
2024/01/13 09:10:30;;;;;;;14.35;5.22;;;0.60;99.90;;;;;;10080897;28;20029;-63
2024/01/13 09:15:21;;;;;;;14.50;6.07;;;0.60;99.90;;;;;;10082176;28;20447;-67
2024/01/13 09:20:11;;;;;;;11.73;5.00;;;0.60;99.90;;;;;;10080658;28;21074;-66
2024/01/13 09:25:03;;;;;;;12.60;4.10;;;0.60;99.90;;;;;;10071681;28;20431;-65
2024/01/13 09:29:53;;;;;;;13.50;5.35;;;0.50;99.90;;;;;;10076607;28;20121;-66
2024/01/13 09:34:44;;;;;;;12.60;5.25;;;0.50;99.90;;;;;;10078546;28;20554;-66
2024/01/13 09:39:35;;;;;;;11.35;4.60;;;0.50;99.90;;;;;;10080487;28;20052;-65
2024/01/13 09:44:28;;;;;;;15.68;5.88;;;0.60;99.90;;;;;;10081469;28;20025;-68
2024/01/13 09:49:20;;;;;;;15.65;6.43;;;0.60;99.90;;;;;;10075868;28;20020;-66
2024/01/13 09:54:23;;;;;;;13.68;5.88;;;0.60;99.90;;;;;;10080787;28;20491;-63
2024/01/13 09:59:15;;;;;;;13.60;6.32;;;0.60;99.90;;;;;;10079162;28;20058;-62
2024/01/13 10:04:06;;;;;;;18.05;6.05;;;0.50;99.90;;;;;;10075220;28;20561;-63
2024/01/13 10:08:57;;;;;;;12.70;5.10;;;0.50;99.90;;;;;;10076713;28;20037;-66
2024/01/13 10:14:11;;;;;;;17.77;5.93;;;0.40;99.90;;;;;;10075874;28;20040;-64
2024/01/13 10:19:07;;;;;;;20.42;6.95;;;0.50;99.90;;;;;;10066977;28;20060;-63
2024/01/13 10:23:59;;;;;;;15.50;6.63;;;0.60;99.90;;;;;;10078600;28;20241;-64
2024/01/13 10:28:53;;;;;;;18.17;7.05;;;0.50;99.90;;;;;;10072733;28;20117;-63
2024/01/13 10:33:48;;;;;;;16.13;5.95;;;0.50;99.90;;;;;;10075292;28;20040;-63
2024/01/13 10:38:42;;;;;;;19.60;6.15;;;0.50;99.90;;;;;;10074971;28;20113;-63
2024/01/13 10:43:37;;;;;;;19.98;8.65;;;0.40;99.90;;;;;;10075077;28;20040;-63
2024/01/13 10:48:46;;;;;;;17.30;6.80;;;0.40;99.90;;;;;;10079604;28;20025;-64
2024/01/13 10:53:37;;;;;;;23.65;6.97;;;0.40;99.90;;;;;;10070147;28;20036;-72
2024/01/13 10:58:29;;;;;;;18.65;8.32;;;0.50;99.90;;;;;;10072917;28;20041;-71
2024/01/13 11:03:21;;;;;;;28.98;9.05;;;0.50;99.90;;;;;;10074920;28;20044;-67
2024/01/13 11:08:12;;;;;;;21.92;8.93;;;0.40;99.90;;;;;;10073842;28;20017;-68
2024/01/13 11:13:23;;;;;;;22.38;7.78;;;0.50;99.90;;;;;;10086745;28;20395;-63
2024/01/13 11:18:18;;;;;;;19.40;6.95;;;0.30;99.90;;;;;;10070217;28;20041;-64
2024/01/13 11:23:09;;;;;;;22.53;7.77;;;0.40;99.90;;;;;;10071714;28;20556;-77
2024/01/13 11:28:01;;;;;;;18.75;7.38;;;0.50;99.90;;;;;;10071700;28;20034;-71
2024/01/13 11:32:53;;;;;;;25.90;7.85;;;0.50;99.90;;;;;;10072065;28;20017;-76
2024/01/13 11:37:44;;;;;;;25.38;8.65;;;0.50;99.90;;;;;;10056783;28;20104;-73
2024/01/13 11:42:35;;;;;;;24.10;8.50;;;0.50;99.90;;;;;;10056915;28;20519;-69
2024/01/13 11:47:31;;;;;;;22.35;7.95;;;0.50;99.90;;;;;;10056590;28;20411;-72
2024/01/13 11:52:31;;;;;;;23.50;7.15;;;0.30;99.90;;;;;;10056871;28;20025;-74
2024/01/13 11:57:22;;;;;;;23.70;9.07;;;0.30;99.90;;;;;;10052720;28;20510;-77
2024/01/13 12:02:13;;;;;;;32.33;9.25;;;0.30;99.90;;;;;;10056515;28;20025;-73
2024/01/13 12:07:11;;;;;;;26.25;8.30;;;0.20;99.90;;;;;;10055715;28;20029;-65
2024/01/13 12:12:02;;;;;;;24.05;8.30;;;0.30;99.90;;;;;;10055777;28;20033;-66
2024/01/13 12:16:57;;;;;;;20.15;8.07;;;0.20;99.90;;;;;;10056369;28;20124;-65
2024/01/13 12:21:48;;;;;;;23.77;8.02;;;0.30;99.90;;;;;;10044640;28;20104;-71
2024/01/13 12:26:39;;;;;;;27.35;7.45;;;0.30;99.90;;;;;;10049991;28;20026;-66
2024/01/13 12:31:30;;;;;;;24.00;7.57;;;0.30;99.90;;;;;;10061548;28;20147;-63
2024/01/13 12:36:20;;;;;;;20.80;7.20;;;0.30;99.90;;;;;;10065570;28;20029;-64
2024/01/13 12:41:11;;;;;;;27.85;8.85;;;0.40;99.90;;;;;;10067205;28;20029;-65
2024/01/13 12:46:03;;;;;;;22.52;8.80;;;0.40;99.90;;;;;;10072857;28;20025;-66
2024/01/13 12:50:53;;;;;;;19.58;7.88;;;0.40;99.90;;;;;;10061432;28;20053;-64
2024/01/13 12:55:44;;;;;;;23.35;8.23;;;0.30;99.90;;;;;;10064873;28;20525;-65
2024/01/13 13:00:35;;;;;;;17.73;7.45;;;0.40;99.90;;;;;;10073850;28;20159;-65
2024/01/13 13:05:26;;;;;;;27.42;10.23;;;0.40;99.90;;;;;;10050403;28;20033;-67
2024/01/13 13:10:20;;;;;;;27.52;9.80;;;0.40;99.90;;;;;;10055390;28;20026;-66
2024/01/13 13:15:12;;;;;;;22.35;8.57;;;0.40;99.90;;;;;;10058933;28;20554;-65
2024/01/13 13:20:03;;;;;;;22.60;8.75;;;0.40;99.90;;;;;;10061253;28;20049;-67
2024/01/13 13:24:53;;;;;;;31.45;9.75;;;0.30;99.90;;;;;;10056756;28;20022;-66
2024/01/13 13:29:44;;;;;;;23.65;8.20;;;0.30;99.90;;;;;;10061084;28;20037;-66
2024/01/13 13:34:36;;;;;;;19.67;8.13;;;0.30;99.90;;;;;;10060565;28;20035;-70
2024/01/13 13:39:27;;;;;;;23.55;9.13;;;0.30;99.90;;;;;;10061565;28;20091;-66
2024/01/13 13:44:17;;;;;;;21.60;7.35;;;0.20;99.90;;;;;;10061298;28;20100;-66
2024/01/13 13:49:08;;;;;;;21.85;8.02;;;0.30;99.90;;;;;;10059156;28;20120;-65
2024/01/13 13:53:59;;;;;;;21.63;8.77;;;0.30;99.90;;;;;;10062201;28;20021;-65
2024/01/13 13:58:49;;;;;;;20.33;7.68;;;0.30;99.90;;;;;;10060250;28;20065;-65
2024/01/13 14:03:40;;;;;;;27.13;8.95;;;0.20;99.90;;;;;;10059492;28;20147;-66
2024/01/13 14:08:31;;;;;;;18.75;7.88;;;0.20;99.90;;;;;;10056842;28;20069;-66
2024/01/13 14:13:24;;;;;;;20.77;6.65;;;0.20;99.90;;;;;;10052436;28;20614;-66
2024/01/13 14:18:15;;;;;;;22.52;7.40;;;0.20;99.90;;;;;;10059508;28;20575;-66
2024/01/13 14:23:05;;;;;;;27.45;9.20;;;0.20;99.90;;;;;;10057839;28;20124;-66
2024/01/13 14:27:56;;;;;;;24.10;8.57;;;0.20;99.90;;;;;;10059202;28;20045;-66
2024/01/13 14:32:47;;;;;;;25.70;8.43;;;0.20;99.90;;;;;;10059073;28;20088;-66
2024/01/13 14:37:38;;;;;;;25.20;7.82;;;0.20;99.90;;;;;;10052935;28;20037;-65
2024/01/13 14:42:29;;;;;;;23.13;8.35;;;0.20;99.90;;;;;;10053062;28;20049;-71
2024/01/13 14:47:21;;;;;;;26.90;7.63;;;0.20;99.90;;;;;;10050183;28;20072;-71
2024/01/13 14:52:12;;;;;;;22.25;7.22;;;0.10;99.90;;;;;;10049471;28;20462;-72
2024/01/13 14:57:04;;;;;;;26.35;7.78;;;0.10;99.90;;;;;;10063474;28;20043;-73
2024/01/13 15:01:54;;;;;;;26.67;9.98;;;0.00;99.90;;;;;;10057815;28;20044;-68
2024/01/13 15:06:45;;;;;;;24.35;7.68;;;0.10;99.90;;;;;;10053503;28;20488;-69
2024/01/13 15:11:36;;;;;;;26.88;8.80;;;0.20;99.90;;;;;;10055708;28;20456;-68
2024/01/13 15:16:26;;;;;;;19.13;7.03;;;0.10;99.90;;;;;;10055527;28;20083;-68
2024/01/13 15:21:18;;;;;;;30.20;11.20;;;0.20;99.90;;;;;;10056778;28;20072;-69
2024/01/13 15:26:11;;;;;;;31.42;10.48;;;0.10;99.90;;;;;;10059449;28;20033;-69
2024/01/13 15:31:02;;;;;;;30.63;10.63;;;0.10;99.90;;;;;;10056850;28;20025;-68
2024/01/13 15:35:53;;;;;;;33.38;9.90;;;0.10;99.90;;;;;;10056357;28;20025;-68
2024/01/13 15:40:43;;;;;;;27.30;10.27;;;0.10;99.90;;;;;;10046486;28;20049;-65
2024/01/13 15:45:34;;;;;;;22.98;9.52;;;0.10;99.90;;;;;;10056818;28;20116;-65
2024/01/13 15:50:25;;;;;;;26.00;10.20;;;0.10;99.90;;;;;;10048383;28;20030;-68
2024/01/13 15:55:16;;;;;;;29.33;10.18;;;0.10;99.90;;;;;;10060799;28;20032;-65
2024/01/13 16:00:07;;;;;;;32.53;9.32;;;0.00;99.90;;;;;;10055950;28;20044;-69
2024/01/13 16:04:58;;;;;;;26.15;9.05;;;-0.10;99.90;;;;;;10055837;28;20589;-67
2024/01/13 16:09:49;;;;;;;29.90;10.25;;;0.00;99.90;;;;;;10049954;28;20031;-66
2024/01/13 16:14:39;;;;;;;29.27;9.75;;;0.00;99.90;;;;;;10045465;28;20032;-67
2024/01/13 16:19:31;;;;;;;25.48;9.52;;;0.00;99.90;;;;;;10038010;28;20064;-67
2024/01/13 16:24:22;;;;;;;27.20;8.95;;;0.00;99.90;;;;;;10050878;28;20033;-69
2024/01/13 16:29:14;;;;;;;28.80;9.88;;;0.00;99.90;;;;;;10054161;28;20025;-66
2024/01/13 16:34:05;;;;;;;25.58;9.73;;;0.00;99.90;;;;;;10062582;28;20514;-67
2024/01/13 16:38:57;;;;;;;28.35;8.88;;;0.00;99.90;;;;;;10057853;28;20041;-67
2024/01/13 16:43:48;;;;;;;31.35;9.60;;;0.00;99.90;;;;;;10060392;28;20030;-69
2024/01/13 16:48:38;;;;;;;26.38;9.15;;;0.00;99.90;;;;;;10058643;28;20029;-65
2024/01/13 16:53:29;;;;;;;22.75;7.72;;;0.00;99.90;;;;;;10066513;28;20048;-66
2024/01/13 16:58:21;;;;;;;33.47;10.75;;;0.00;99.90;;;;;;10060890;28;20048;-66
2024/01/13 17:03:11;;;;;;;24.60;8.35;;;0.00;99.90;;;;;;10054382;28;20431;-66
2024/01/13 17:08:02;;;;;;;19.58;9.38;;;0.00;99.90;;;;;;10062225;28;20104;-65
2024/01/13 17:12:53;;;;;;;26.63;8.30;;;0.00;99.90;;;;;;10062123;28;20654;-65
2024/01/13 17:17:44;;;;;;;21.27;7.72;;;0.10;99.90;;;;;;10057045;28;20073;-65
2024/01/13 17:22:34;;;;;;;21.67;7.78;;;0.10;99.90;;;;;;10061668;28;20042;-64
2024/01/13 17:27:25;;;;;;;28.38;8.23;;;0.10;99.90;;;;;;10061771;28;20033;-71
2024/01/13 17:32:15;;;;;;;15.90;6.97;;;0.10;99.90;;;;;;10077436;28;20095;-65
2024/01/13 17:37:06;;;;;;;30.83;9.45;;;0.10;99.90;;;;;;10070948;28;20064;-65
2024/01/13 17:41:57;;;;;;;27.58;10.35;;;0.00;99.90;;;;;;10076000;28;20481;-64
2024/01/13 17:46:48;;;;;;;23.67;7.97;;;-0.10;99.90;;;;;;10076202;28;20033;-65
2024/01/13 17:51:38;;;;;;;23.50;8.55;;;-0.10;99.90;;;;;;10069269;28;20643;-68
2024/01/13 17:56:29;;;;;;;21.35;7.93;;;0.00;99.90;;;;;;10062507;28;20063;-68
2024/01/13 18:01:20;;;;;;;30.55;8.63;;;0.00;99.90;;;;;;10060460;28;20076;-66
2024/01/13 18:06:11;;;;;;;30.45;9.45;;;0.00;99.90;;;;;;10058034;28;20057;-66
2024/01/13 18:11:02;;;;;;;26.45;10.45;;;-0.10;99.90;;;;;;10053897;28;20087;-66
2024/01/13 18:15:53;;;;;;;32.25;10.35;;;0.00;99.90;;;;;;10045126;28;20135;-65
2024/01/13 18:20:44;;;;;;;26.77;9.45;;;-0.10;99.90;;;;;;10053494;28;20144;-67
2024/01/13 18:25:35;;;;;;;24.75;10.23;;;-0.10;99.90;;;;;;10056807;28;20130;-63
2024/01/13 18:30:25;;;;;;;24.95;8.43;;;-0.10;99.90;;;;;;10038240;28;20041;-63
2024/01/13 18:35:16;;;;;;;27.13;8.98;;;0.00;99.90;;;;;;10039122;28;20026;-66
2024/01/13 18:40:10;;;;;;;30.73;9.15;;;0.00;99.90;;;;;;10056106;28;20045;-62
2024/01/13 18:45:01;;;;;;;25.58;10.00;;;-0.10;99.90;;;;;;10053876;28;20055;-66
2024/01/13 18:49:52;;;;;;;24.40;9.43;;;0.00;99.90;;;;;;10045237;28;20496;-65
2024/01/13 18:54:44;;;;;;;26.95;7.80;;;0.00;99.90;;;;;;10048313;28;20103;-65
2024/01/13 18:59:38;;;;;;;24.00;9.10;;;0.00;99.90;;;;;;10034733;28;20462;-65
2024/01/13 19:04:29;;;;;;;33.55;10.95;;;-0.10;99.90;;;;;;10038689;28;20018;-65
2024/01/13 19:09:19;;;;;;;27.92;9.35;;;-0.10;99.90;;;;;;10053880;28;20044;-65
2024/01/13 19:14:10;;;;;;;26.30;9.65;;;-0.10;99.90;;;;;;10046500;28;20470;-64
2024/01/13 19:19:07;;;;;;;31.90;11.30;;;-0.20;99.90;;;;;;10049362;28;20425;-64
2024/01/13 19:23:57;;;;;;;29.58;9.02;;;-0.20;99.90;;;;;;10051105;28;20376;-65
2024/01/13 19:28:48;;;;;;;27.63;10.52;;;-0.30;99.90;;;;;;10050176;28;20037;-64
2024/01/13 19:33:39;;;;;;;24.58;9.52;;;-0.30;99.90;;;;;;10048284;28;20037;-64
2024/01/13 19:38:30;;;;;;;25.20;8.88;;;-0.20;99.90;;;;;;10049427;28;20033;-64
2024/01/13 19:43:20;;;;;;;27.83;8.45;;;-0.30;99.90;;;;;;10047557;28;20387;-64
2024/01/13 19:48:11;;;;;;;22.38;8.30;;;-0.30;99.90;;;;;;10055218;28;20537;-65
2024/01/13 19:53:02;;;;;;;25.60;7.75;;;-0.20;99.90;;;;;;10062158;28;20033;-71
2024/01/13 19:57:53;;;;;;;23.67;8.70;;;-0.30;99.90;;;;;;10064825;28;20160;-69
2024/01/13 20:02:43;;;;;;;26.50;8.23;;;-0.30;99.90;;;;;;10065853;28;20092;-66
2024/01/13 20:07:34;;;;;;;26.15;10.88;;;-0.20;99.90;;;;;;10068169;28;20025;-67
2024/01/13 20:12:24;;;;;;;23.98;9.02;;;-0.30;99.90;;;;;;10076141;28;20033;-66
2024/01/13 20:17:15;;;;;;;21.52;8.45;;;-0.30;99.90;;;;;;10069389;28;20037;-65
2024/01/13 20:22:07;;;;;;;22.42;9.52;;;-0.30;99.90;;;;;;10068992;28;20052;-69
2024/01/13 20:26:58;;;;;;;31.40;8.85;;;-0.30;99.90;;;;;;10071764;28;20088;-71
2024/01/13 20:31:48;;;;;;;23.88;8.80;;;-0.30;99.90;;;;;;10067473;28;20557;-67
2024/01/13 20:36:40;;;;;;;28.25;9.75;;;-0.20;99.90;;;;;;10056111;28;20494;-64
2024/01/13 20:41:31;;;;;;;26.42;8.85;;;-0.20;99.90;;;;;;10055600;28;20384;-66
2024/01/13 20:46:22;;;;;;;26.15;10.13;;;-0.20;99.90;;;;;;10055082;28;20021;-66
2024/01/13 20:51:13;;;;;;;24.90;9.15;;;-0.20;99.90;;;;;;10054265;28;20029;-65
2024/01/13 20:56:07;;;;;;;25.75;10.35;;;-0.20;99.90;;;;;;10060850;28;20034;-66
2024/01/13 21:00:58;;;;;;;30.40;10.23;;;-0.10;99.90;;;;;;10051994;28;20037;-68
2024/01/13 21:05:48;;;;;;;25.73;9.77;;;-0.10;99.90;;;;;;10053822;28;20060;-69
2024/01/13 21:10:39;;;;;;;25.48;9.73;;;-0.20;99.90;;;;;;10051999;28;20025;-64
2024/01/13 21:15:33;;;;;;;26.38;10.30;;;-0.10;99.90;;;;;;10054777;28;20033;-65
2024/01/13 21:20:25;;;;;;;21.55;7.70;;;-0.20;99.90;;;;;;10060771;28;20049;-66
2024/01/13 21:25:17;;;;;;;25.63;8.50;;;-0.20;99.90;;;;;;10063679;28;20037;-64
2024/01/13 21:30:11;;;;;;;24.75;9.00;;;-0.20;99.90;;;;;;10061575;28;20040;-64
2024/01/13 21:35:04;;;;;;;28.13;9.55;;;-0.30;99.90;;;;;;10060332;28;20057;-67
2024/01/13 21:39:55;;;;;;;27.35;9.60;;;-0.30;99.90;;;;;;10060308;28;20067;-66
2024/01/13 21:44:45;;;;;;;27.30;9.43;;;-0.40;99.90;;;;;;10061781;28;20025;-66
2024/01/13 21:49:36;;;;;;;17.23;7.40;;;-0.40;99.90;;;;;;10060829;28;20040;-66
2024/01/13 21:54:27;;;;;;;24.83;8.75;;;-0.40;99.90;;;;;;10070195;28;20287;-64
2024/01/13 21:59:17;;;;;;;25.55;8.15;;;-0.30;99.90;;;;;;10071467;28;20057;-72
2024/01/13 22:04:08;;;;;;;18.88;8.15;;;-0.30;99.90;;;;;;10060593;28;20082;-72
2024/01/13 22:08:59;;;;;;;21.48;7.68;;;-0.30;99.90;;;;;;10060036;28;20462;-69
2024/01/13 22:13:49;;;;;;;22.90;8.73;;;-0.30;99.90;;;;;;10060400;28;20104;-69
2024/01/13 22:18:41;;;;;;;23.35;8.98;;;-0.30;99.90;;;;;;10060001;28;20052;-69
2024/01/13 22:23:32;;;;;;;27.92;8.13;;;-0.30;99.90;;;;;;10059887;28;20632;-71
2024/01/13 22:28:23;;;;;;;26.70;9.48;;;-0.40;99.90;;;;;;10056323;28;20140;-66
2024/01/13 22:33:13;;;;;;;24.00;8.20;;;-0.40;99.90;;;;;;10059336;28;20049;-73
2024/01/13 22:38:05;;;;;;;22.52;8.95;;;-0.40;99.90;;;;;;10062195;28;20053;-71
2024/01/13 22:42:56;;;;;;;26.17;9.05;;;-0.40;99.90;;;;;;10061637;28;20037;-71
2024/01/13 22:47:47;;;;;;;28.27;8.32;;;-0.30;99.90;;;;;;10058501;28;20090;-67
2024/01/13 22:52:38;;;;;;;18.48;7.32;;;-0.20;99.90;;;;;;10060630;28;20150;-70
2024/01/13 22:57:28;;;;;;;19.52;8.02;;;-0.30;99.90;;;;;;10058337;28;20507;-65
2024/01/13 23:02:19;;;;;;;27.98;9.57;;;-0.30;99.90;;;;;;10056653;28;20029;-67
2024/01/13 23:07:11;;;;;;;25.00;8.55;;;-0.30;99.90;;;;;;10057418;28;20033;-64
2024/01/13 23:12:04;;;;;;;26.67;8.38;;;-0.30;99.90;;;;;;10058268;28;20030;-66
2024/01/13 23:16:55;;;;;;;27.17;9.50;;;-0.30;99.90;;;;;;10057417;28;20044;-66
2024/01/13 23:21:46;;;;;;;25.83;9.00;;;-0.30;99.90;;;;;;10063466;28;20535;-67
2024/01/13 23:26:36;;;;;;;28.80;9.20;;;-0.30;99.90;;;;;;10055549;28;20043;-65
2024/01/13 23:31:27;;;;;;;25.80;8.00;;;-0.30;99.90;;;;;;10058877;28;20121;-64
2024/01/13 23:36:18;;;;;;;21.77;8.35;;;-0.40;99.90;;;;;;10056110;28;20121;-66
2024/01/13 23:41:09;;;;;;;20.60;8.02;;;-0.40;99.90;;;;;;10056541;28;20055;-64
2024/01/13 23:46:00;;;;;;;19.98;7.75;;;-0.30;99.90;;;;;;10056385;28;20141;-64
2024/01/13 23:50:52;;;;;;;21.42;7.20;;;-0.30;99.90;;;;;;10051757;28;20037;-64
2024/01/13 23:55:42;;;;;;;16.63;7.07;;;-0.30;99.90;;;;;;10057948;28;20164;-65
